Time;durP1;ratioP1;P1;durP2;ratioP2;P2;SDS_P1;SDS_P2;PMS_P1;PMS_P2;Temp;Humidity;BMP_temperature;BMP_pressure;BME280_temperature;BME280_humidity;BME280_pressure;Samples;Min_cycle;Max_cycle;Signal;HPM_P1;HPM_P2
2022/10/04 00:02:28;;;;;;;;;9.50;9.25;;;;;16.26;85.25;99723.28;5056410;28;45396;-81
2022/10/04 00:05:02;;;;;;;;;11.00;11.00;;;;;16.25;85.27;99730.44;5056001;28;45426;-81
2022/10/04 00:07:33;;;;;;;;;9.50;9.25;;;;;16.23;85.27;99731.44;5055609;28;46173;-81
2022/10/04 00:10:15;;;;;;;;;10.60;10.60;;;;;16.22;85.04;99735.06;5055965;28;45216;-81
2022/10/04 00:12:50;;;;;;;;;9.25;9.25;;;;;16.20;85.58;99737.78;5054047;28;45494;-81
2022/10/04 00:15:24;;;;;;;;;12.50;11.75;;;;;16.20;85.61;99737.78;5044562;28;45539;-81
2022/10/04 00:18:11;;;;;;;;;7.50;7.50;;;;;16.20;85.92;99735.13;5053576;28;45477;-81
2022/10/04 00:20:54;;;;;;;;;11.00;9.50;;;;;16.21;86.16;99733.34;5071588;28;45453;-81
2022/10/04 00:23:22;;;;;;;;;12.50;10.50;;;;;16.20;86.04;99731.59;5056307;28;45389;-81
2022/10/04 00:25:49;;;;;;;;;8.50;8.50;;;;;16.18;86.21;99737.00;5064704;28;45233;-81
2022/10/04 00:28:24;;;;;;;;;9.25;9.00;;;;;16.20;86.72;99739.59;5055411;28;45440;-81
2022/10/04 00:31:08;;;;;;;;;11.60;10.60;;;;;16.19;86.81;99733.41;5055755;28;45432;-81
2022/10/04 00:33:37;;;;;;;;;12.25;10.75;;;;;16.18;87.04;99734.34;5045802;28;45499;-81
2022/10/04 00:36:39;;;;;;;;;8.25;8.25;;;;;16.19;86.95;99737.88;5050758;28;45285;-81
2022/10/04 00:39:08;;;;;;;;;12.50;11.25;;;;;16.20;87.29;99734.28;5039340;28;45433;-80
2022/10/04 00:41:43;;;;;;;;;13.75;9.25;;;;;16.21;87.41;99736.84;5067302;28;45490;-80
2022/10/04 00:44:21;;;;;;;;;13.50;10.75;;;;;16.22;87.46;99729.72;5054216;28;45460;-81
2022/10/04 00:46:49;;;;;;;;;14.75;12.00;;;;;16.23;86.91;99732.31;5053803;28;45489;-80
2022/10/04 00:49:19;;;;;;;;;13.50;11.25;;;;;16.26;87.31;99731.25;5055111;28;46536;-81
2022/10/04 00:51:57;;;;;;;;;12.25;11.50;;;;;16.27;86.86;99728.53;5042532;28;45425;-81
2022/10/04 00:54:34;;;;;;;;;11.50;11.25;;;;;16.28;86.30;99730.25;5044271;28;45368;-80
2022/10/04 00:57:11;;;;;;;;;9.25;9.25;;;;;16.27;86.48;99725.88;5055381;28;45533;-80
2022/10/04 00:59:47;;;;;;;;;13.75;12.00;;;;;16.28;86.08;99727.59;5055819;28;46410;-81
2022/10/04 01:02:27;;;;;;;;;16.75;14.75;;;;;16.29;85.94;99731.97;5052141;28;45356;-81
2022/10/04 01:04:53;;;;;;;;;12.25;11.75;;;;;16.26;86.02;99732.13;5052545;28;45334;-80
2022/10/04 01:07:27;;;;;;;;;13.50;13.50;;;;;16.24;86.00;99731.38;5050753;28;45451;-80
2022/10/04 01:10:02;;;;;;;;;13.25;12.00;;;;;16.22;85.84;99725.28;5054521;28;45558;-80
2022/10/04 01:13:03;;;;;;;;;12.00;9.25;;;;;16.20;85.96;99732.47;5048353;28;45479;-81
2022/10/04 01:15:54;;;;;;;;;10.00;9.50;;;;;16.18;86.19;99723.72;5042940;28;45558;-80
2022/10/04 01:18:19;;;;;;;;;14.50;14.00;;;;;16.17;86.05;99711.34;5053018;28;45380;-80
2022/10/04 01:20:53;;;;;;;;;20.25;17.75;;;;;16.17;85.87;99721.13;5053634;28;45493;-80
2022/10/04 01:23:45;;;;;;;;;21.75;18.25;;;;;16.17;86.03;99721.13;5055118;28;45372;-80
2022/10/04 01:26:29;;;;;;;;;24.75;22.00;;;;;16.17;86.03;99721.13;5048018;28;45438;-80
2022/10/04 01:29:09;;;;;;;;;22.75;19.75;;;;;16.16;85.89;99716.75;5070704;28;45472;-80
2022/10/04 01:31:47;;;;;;;;;24.75;22.00;;;;;16.15;85.83;99721.22;5054617;28;45340;-80
2022/10/04 01:34:22;;;;;;;;;21.75;19.50;;;;;16.13;85.90;99719.56;5050615;28;45353;-80
2022/10/04 01:36:50;;;;;;;;;17.25;17.25;;;;;16.13;85.92;99728.41;5045261;28;45360;-81
2022/10/04 01:39:17;;;;;;;;;19.25;19.00;;;;;16.12;85.57;99724.03;5051685;28;45445;-80
2022/10/04 01:42:04;;;;;;;;;18.75;16.75;;;;;16.12;85.83;99717.84;5051796;28;46148;-80
2022/10/04 01:44:46;;;;;;;;;16.25;14.25;;;;;16.09;86.24;99713.53;5055183;28;45345;-80
2022/10/04 01:47:18;;;;;;;;;16.00;16.00;;;;;16.08;85.90;99722.50;5047953;28;45443;-81
2022/10/04 01:49:47;;;;;;;;;17.00;13.00;;;;;16.06;86.06;99713.72;5054621;28;45490;-81
2022/10/04 01:52:23;;;;;;;;;17.00;15.25;;;;;16.03;86.10;99714.75;5053285;28;47034;-80
2022/10/04 01:54:59;;;;;;;;;17.00;13.75;;;;;16.00;86.20;99709.59;5054591;28;45393;-80
2022/10/04 01:57:36;;;;;;;;;15.00;12.75;;;;;15.99;86.51;99712.31;5053374;28;45276;-80
2022/10/04 02:00:07;;;;;;;;;15.00;14.00;;;;;15.96;86.36;99707.16;5054826;28;45360;-80
2022/10/04 02:02:45;;;;;;;;;15.25;13.00;;;;;15.92;86.46;99705.63;5042163;28;46598;-81
2022/10/04 02:05:14;;;;;;;;;15.75;13.00;;;;;15.90;86.75;99705.69;5054365;28;45431;-81
2022/10/04 02:07:41;;;;;;;;;14.75;12.75;;;;;15.87;86.38;99705.84;5044965;28;45452;-81
2022/10/04 02:10:17;;;;;;;;;7.00;5.25;;;;;15.86;86.83;99698.81;5052725;28;45482;-81
2022/10/04 02:12:46;;;;;;;;;11.50;9.50;;;;;15.85;86.64;99704.22;5056387;28;45456;-81
2022/10/04 02:15:13;;;;;;;;;13.00;11.75;;;;;15.81;86.74;99698.19;5056741;28;45194;-81
2022/10/04 02:17:42;;;;;;;;;12.25;11.00;;;;;15.80;86.59;99701.78;5058497;28;45506;-81
2022/10/04 02:20:17;;;;;;;;;11.25;11.25;;;;;15.77;86.98;99701.06;5057816;28;45481;-80
2022/10/04 02:22:45;;;;;;;;;10.75;9.50;;;;;15.74;86.63;99696.81;5049410;28;46317;-80
2022/10/04 02:25:14;;;;;;;;;10.60;10.60;;;;;15.68;86.54;99690.00;5057529;28;45405;-81
2022/10/04 02:27:40;;;;;;;;;10.00;9.25;;;;;15.65;85.66;99695.47;5057806;28;45439;-80
2022/10/04 02:30:09;;;;;;;;;12.25;9.25;;;;;15.60;84.87;99688.66;5056613;28;45297;-80
2022/10/04 02:32:58;;;;;;;;;10.50;8.25;;;;;15.54;84.81;99687.16;5058248;27;45493;-80
2022/10/04 02:35:27;;;;;;;;;9.25;9.00;;;;;15.50;84.63;99680.28;5057444;27;45269;-80
2022/10/04 02:38:21;;;;;;;;;8.75;7.50;;;;;15.48;84.84;99686.59;5057598;28;45338;-80
2022/10/04 02:40:56;;;;;;;;;8.50;8.25;;;;;15.45;84.75;99681.44;5068699;28;45387;-80
2022/10/04 02:43:29;;;;;;;;;8.25;8.00;;;;;15.41;84.73;99678.09;5049390;28;45298;-80
2022/10/04 02:46:06;;;;;;;;;9.60;8.40;;;;;15.39;84.48;99679.13;5054417;28;45646;-80
2022/10/04 02:48:31;;;;;;;;;7.25;6.75;;;;;15.35;84.15;99678.41;5057144;28;45407;-80
2022/10/04 02:51:05;;;;;;;;;7.50;6.75;;;;;15.33;84.09;99682.94;5056852;28;45497;-79
2022/10/04 02:53:44;;;;;;;;;9.00;8.25;;;;;15.31;83.95;99684.81;5051911;28;46561;-80
2022/10/04 02:56:11;;;;;;;;;6.60;6.20;;;;;15.30;83.63;99685.75;5052516;28;45416;-80
2022/10/04 02:58:39;;;;;;;;;8.75;7.00;;;;;15.28;83.64;99688.47;5090247;27;45458;-80
2022/10/04 03:01:04;;;;;;;;;8.75;8.50;;;;;15.28;83.68;99687.59;5048662;28;45599;-80
2022/10/04 03:03:36;;;;;;;;;9.50;8.75;;;;;15.27;83.77;99688.53;5056684;28;46132;-80
2022/10/04 03:06:13;;;;;;;;;7.20;7.00;;;;;15.25;83.52;99683.31;5057465;28;45313;-80
2022/10/04 03:09:14;;;;;;;;;8.25;7.25;;;;;15.25;83.64;99685.09;5055806;28;45500;-80
2022/10/04 03:11:40;;;;;;;;;11.00;8.50;;;;;15.25;83.54;99687.75;5014269;28;45452;-80
2022/10/04 03:14:14;;;;;;;;;9.00;7.25;;;;;15.25;84.20;99691.28;5042050;28;45472;-80
2022/10/04 03:16:43;;;;;;;;;7.50;6.50;;;;;15.26;84.08;99685.03;5060516;27;45433;-80
2022/10/04 03:19:11;;;;;;;;;7.00;7.00;;;;;15.27;84.01;99689.41;5072208;27;45534;-79
2022/10/04 03:21:39;;;;;;;;;8.50;7.00;;;;;15.28;83.92;99688.47;5049338;28;45433;-80
2022/10/04 03:24:05;;;;;;;;;8.50;8.00;;;;;15.31;83.73;99692.78;5057129;28;45369;-80
2022/10/04 03:26:49;;;;;;;;;8.20;5.80;;;;;15.33;83.40;99688.25;5056394;28;45467;-80
2022/10/04 03:29:17;;;;;;;;;9.00;6.75;;;;;15.34;83.14;99687.31;5051988;28;45416;-80
2022/10/04 03:31:51;;;;;;;;;5.50;5.50;;;;;15.36;82.50;99685.44;5054451;28;46449;-80
2022/10/04 03:34:18;;;;;;;;;9.00;9.00;;;;;15.36;82.65;99691.63;5052099;28;45685;-80
2022/10/04 03:36:46;;;;;;;;;8.60;6.60;;;;;15.38;82.29;99688.03;5056572;28;45515;-80
2022/10/04 03:39:37;;;;;;;;;9.00;8.50;;;;;15.39;82.44;99689.75;5056894;28;45497;-80
2022/10/04 03:42:16;;;;;;;;;8.50;7.50;;;;;15.40;82.00;99688.81;5056643;28;45325;-80
2022/10/04 03:44:48;;;;;;;;;9.25;9.25;;;;;15.39;82.17;99681.78;5043502;28;47238;-80
2022/10/04 03:47:20;;;;;;;;;8.00;6.60;;;;;15.36;81.87;99686.31;5056842;28;45452;-81
2022/10/04 03:49:48;;;;;;;;;8.00;8.00;;;;;15.34;81.33;99682.84;5055018;28;45365;-79
2022/10/04 03:52:36;;;;;;;;;6.25;6.25;;;;;15.34;81.42;99687.31;5049708;28;45583;-79
2022/10/04 03:55:05;;;;;;;;;8.50;7.00;;;;;15.31;81.31;99683.00;5056298;28;46259;-79
2022/10/04 03:57:31;;;;;;;;;9.50;6.25;;;;;15.28;80.59;99692.91;5050289;28;45425;-81
2022/10/04 03:59:58;;;;;;;;;7.25;7.25;;;;;15.27;80.05;99691.19;5056370;28;45531;-81
2022/10/04 04:02:35;;;;;;;;;6.50;6.50;;;;;15.24;79.77;99688.72;5051621;28;45518;-80
2022/10/04 04:05:08;;;;;;;;;7.50;6.75;;;;;15.19;80.05;99699.56;5055924;28;45443;-81
2022/10/04 04:07:37;;;;;;;;;2.40;2.20;;;;;15.16;79.70;99693.53;5052589;28;45456;-81
2022/10/04 04:10:20;;;;;;;;;8.50;6.00;;;;;15.13;80.05;99693.69;5054300;28;45545;-81
2022/10/04 04:12:51;;;;;;;;;9.25;9.25;;;;;15.10;79.60;99696.50;5053619;28;45409;-81
2022/10/04 04:15:17;;;;;;;;;6.50;6.25;;;;;15.07;79.76;99694.00;5055726;28;45512;-81
2022/10/04 04:17:54;;;;;;;;;8.00;6.75;;;;;15.02;79.95;99691.56;5054986;28;45665;-81
2022/10/04 04:20:27;;;;;;;;;7.50;7.50;;;;;14.97;80.23;99701.56;5053362;28;45484;-81
2022/10/04 04:23:21;;;;;;;;;8.50;8.50;;;;;14.92;80.27;99693.81;5055594;28;45415;-81
2022/10/04 04:25:50;;;;;;;;;8.25;7.25;;;;;14.89;80.12;99698.44;5037442;28;47470;-81
2022/10/04 04:28:16;;;;;;;;;7.00;6.60;;;;;14.86;80.25;99694.13;5048959;28;45436;-81
2022/10/04 04:30:49;;;;;;;;;7.75;7.75;;;;;14.83;80.37;99696.06;5055723;28;45493;-81
2022/10/04 04:33:31;;;;;;;;;5.25;5.25;;;;;14.81;80.06;99697.91;5055488;28;45275;-81
2022/10/04 04:36:05;;;;;;;;;7.75;7.75;;;;;14.77;80.25;99697.19;5051102;28;46231;-81
2022/10/04 04:38:31;;;;;;;;;7.00;6.50;;;;;14.76;80.45;99705.22;5054249;28;46107;-81
2022/10/04 04:41:08;;;;;;;;;7.50;7.00;;;;;14.74;80.06;99712.44;5053117;28;45395;-81
2022/10/04 04:43:34;;;;;;;;;7.25;7.25;;;;;14.71;79.80;99701.97;5044106;28;45279;-82
2022/10/04 04:46:01;;;;;;;;;7.50;7.00;;;;;14.66;80.05;99710.13;5052304;28;45535;-82
2022/10/04 04:48:26;;;;;;;;;11.00;10.00;;;;;14.62;80.32;99714.72;5055386;28;45479;-81
2022/10/04 04:50:56;;;;;;;;;7.75;7.00;;;;;14.60;80.27;99719.22;5087498;27;45366;-79
2022/10/04 04:53:25;;;;;;;;;10.50;9.00;;;;;14.57;80.14;99714.09;5055313;28;45560;-80
2022/10/04 04:56:02;;;;;;;;;8.75;8.75;;;;;14.56;80.27;99719.47;5054774;28;45577;-80
2022/10/04 04:58:32;;;;;;;;;11.25;8.50;;;;;14.53;80.25;99722.25;5055506;28;45539;-79
2022/10/04 05:01:07;;;;;;;;;6.00;6.00;;;;;14.51;80.16;99721.47;5052850;28;45386;-80
2022/10/04 05:03:33;;;;;;;;;7.25;7.25;;;;;14.49;80.56;99726.84;5050432;28;45509;-80
2022/10/04 05:06:03;;;;;;;;;8.50;7.50;;;;;14.46;80.25;99718.16;5054843;28;46554;-80
2022/10/04 05:08:31;;;;;;;;;8.50;8.50;;;;;14.43;80.55;99726.25;5054757;28;45419;-80
2022/10/04 05:11:05;;;;;;;;;9.25;9.25;;;;;14.41;80.67;99728.16;5049319;28;45222;-80
2022/10/04 05:13:43;;;;;;;;;7.75;7.75;;;;;14.38;80.73;99731.75;5054695;28;45384;-80
2022/10/04 05:16:12;;;;;;;;;10.25;8.50;;;;;14.33;81.00;99731.97;5054047;28;45552;-80
2022/10/04 05:18:38;;;;;;;;;12.75;11.00;;;;;14.30;81.13;99733.88;5054009;28;45448;-80
2022/10/04 05:21:22;;;;;;;;;5.25;4.25;;;;;14.28;81.32;99733.09;5055947;28;45384;-80
2022/10/04 05:23:48;;;;;;;;;10.75;9.75;;;;;14.27;81.01;99728.72;5066359;28;45426;-80
2022/10/04 05:26:23;;;;;;;;;7.75;7.75;;;;;14.26;80.62;99732.28;5044948;28;46268;-80
2022/10/04 05:28:49;;;;;;;;;8.00;8.00;;;;;14.23;80.41;99729.81;5054349;28;45257;-79
2022/10/04 05:31:46;;;;;;;;;7.25;7.25;;;;;14.21;80.58;99732.53;5048774;28;45513;-81
2022/10/04 05:34:24;;;;;;;;;9.50;9.50;;;;;14.23;80.86;99724.50;5050470;28;45333;-60
2022/10/04 05:36:57;;;;;;;;;11.00;9.25;;;;;14.27;80.71;99720.75;5049794;28;46471;-72
2022/10/04 05:39:33;;;;;;;;;8.00;8.00;;;;;14.30;80.58;99725.94;5053268;28;45364;-72
2022/10/04 05:42:20;;;;;;;;;9.00;9.00;;;;;14.32;80.54;99727.59;5051512;28;45479;-72
2022/10/04 05:44:49;;;;;;;;;6.75;6.25;;;;;14.33;79.86;99721.34;5053518;28;45416;-72
2022/10/04 05:47:15;;;;;;;;;6.75;6.75;;;;;14.35;80.04;99725.72;5051591;28;45445;-72
2022/10/04 05:49:45;;;;;;;;;8.00;8.00;;;;;14.36;80.08;99727.44;5051193;28;45461;-72
2022/10/04 05:52:29;;;;;;;;;7.75;7.75;;;;;14.38;79.56;99725.59;5050382;28;45480;-73
2022/10/04 05:55:26;;;;;;;;;7.00;7.00;;;;;14.39;79.67;99730.81;5068311;27;45800;-72
2022/10/04 05:57:57;;;;;;;;;7.00;7.00;;;;;14.40;79.54;99729.03;5043487;28;45694;-72
2022/10/04 06:00:38;;;;;;;;;11.00;9.25;;;;;14.43;79.09;99728.91;5057502;27;45423;-73
2022/10/04 06:03:19;;;;;;;;;7.50;7.50;;;;;14.44;78.82;99733.28;5046031;28;45451;-72
2022/10/04 06:05:59;;;;;;;;;9.25;8.75;;;;;14.44;79.07;99730.63;5043864;28;45522;-73
2022/10/04 06:08:50;;;;;;;;;10.75;10.75;;;;;14.41;78.41;99736.94;5053083;28;45741;-72
2022/10/04 06:11:21;;;;;;;;;11.75;10.75;;;;;14.41;78.28;99738.75;5051518;28;45503;-72
2022/10/04 06:14:19;;;;;;;;;10.50;10.25;;;;;14.41;78.22;99741.41;5046376;28;45373;-71
2022/10/04 06:17:03;;;;;;;;;10.00;9.75;;;;;14.43;77.94;99732.41;5043592;28;45588;-72
2022/10/04 06:19:52;;;;;;;;;10.25;8.25;;;;;14.43;78.01;99729.75;5052394;28;45461;-73
2022/10/04 06:22:19;;;;;;;;;11.25;10.00;;;;;14.41;77.91;99741.41;5045591;28;45435;-73
2022/10/04 06:24:53;;;;;;;;;10.25;10.25;;;;;14.39;78.49;99736.13;5051609;27;45428;-73
2022/10/04 06:27:40;;;;;;;;;12.75;12.75;;;;;14.37;77.89;99745.09;5038092;28;45476;-72
2022/10/04 06:30:17;;;;;;;;;9.25;9.00;;;;;14.33;78.20;99741.72;5039365;28;46286;-73
2022/10/04 06:33:08;;;;;;;;;10.00;10.00;;;;;14.36;78.61;99748.66;5050836;28;45790;-72
2022/10/04 06:35:49;;;;;;;;;10.25;10.25;;;;;14.38;78.66;99744.16;5043856;28;45304;-73
2022/10/04 06:38:43;;;;;;;;;13.75;10.25;;;;;14.40;78.66;99744.97;5052494;28;45511;-72
2022/10/04 06:41:33;;;;;;;;;10.00;9.00;;;;;14.42;78.40;99751.91;5049585;28;46070;-73
2022/10/04 06:44:11;;;;;;;;;8.50;8.50;;;;;14.44;77.91;99752.72;5067837;28;45533;-73
2022/10/04 06:46:42;;;;;;;;;10.00;10.00;;;;;14.47;77.67;99747.28;5055354;28;45393;-73
2022/10/04 06:49:29;;;;;;;;;11.25;10.00;;;;;14.51;77.18;99755.97;5051379;28;45567;-73
2022/10/04 06:52:31;;;;;;;;;11.75;10.75;;;;;14.54;77.04;99753.16;5045051;28;45423;-73
2022/10/04 06:55:18;;;;;;;;;10.50;10.50;;;;;14.57;77.21;99756.56;5055416;28;45364;-73
2022/10/04 06:58:08;;;;;;;;;12.00;11.00;;;;;14.61;77.25;99762.56;5060760;28;45478;-72
2022/10/04 07:00:51;;;;;;;;;10.50;8.75;;;;;14.65;76.97;99757.03;5051932;28;45402;-72
2022/10/04 07:03:32;;;;;;;;;18.25;15.25;;;;;14.70;77.14;99756.84;5053339;28;45467;-72
2022/10/04 07:06:04;;;;;;;;;14.25;13.00;;;;;14.73;77.31;99758.50;5048739;28;45546;-75
2022/10/04 07:08:37;;;;;;;;;12.50;11.00;;;;;14.78;77.27;99762.63;5086780;27;45415;-67
2022/10/04 07:11:31;;;;;;;;;12.00;11.25;;;;;14.82;77.45;99758.03;5048055;28;45425;-67
2022/10/04 07:14:05;;;;;;;;;12.50;11.50;;;;;14.87;77.90;99761.34;5057741;28;47221;-67
2022/10/04 07:16:36;;;;;;;;;12.25;12.25;;;;;14.91;78.13;99768.25;5044051;28;45417;-67
2022/10/04 07:19:23;;;;;;;;;14.00;12.50;;;;;14.94;78.59;99770.72;5055701;28;45468;-67
2022/10/04 07:21:52;;;;;;;;;14.25;12.50;;;;;14.97;78.91;99766.13;5047633;28;45487;-67
2022/10/04 07:24:37;;;;;;;;;13.75;13.25;;;;;15.02;79.51;99765.94;5055586;28;46444;-67
2022/10/04 07:27:09;;;;;;;;;13.75;12.25;;;;;15.09;79.73;99763.81;5051670;28;45615;-66
2022/10/04 07:29:40;;;;;;;;;13.25;12.75;;;;;15.14;79.90;99759.16;5055897;28;45483;-67
2022/10/04 07:32:13;;;;;;;;;13.25;12.75;;;;;15.21;79.71;99755.28;5052878;28;45495;-67
2022/10/04 07:34:49;;;;;;;;;15.00;13.25;;;;;15.28;80.06;99757.53;5087552;27;47157;-67
2022/10/04 07:37:15;;;;;;;;;12.50;11.75;;;;;15.35;79.84;99761.63;5047878;28;45428;-67
2022/10/04 07:39:56;;;;;;;;;14.50;14.50;;;;;15.42;79.80;99761.31;5055485;28;45560;-68
2022/10/04 07:42:43;;;;;;;;;13.00;13.00;;;;;15.48;79.48;99761.88;5047336;28;45393;-68
2022/10/04 07:45:33;;;;;;;;;15.00;14.00;;;;;15.53;79.58;99756.34;5054799;28;45679;-66
2022/10/04 07:48:11;;;;;;;;;11.75;11.25;;;;;15.57;79.33;99758.81;5048153;28;45460;-67
2022/10/04 07:50:43;;;;;;;;;15.50;11.25;;;;;15.63;79.22;99749.63;5052389;28;45369;-66
2022/10/04 07:53:19;;;;;;;;;16.00;12.75;;;;;15.67;79.47;99753.88;5046159;28;45421;-68
2022/10/04 07:55:45;;;;;;;;;15.75;13.50;;;;;15.70;79.21;99759.03;5083958;27;45503;-67
2022/10/04 07:58:50;;;;;;;;;14.00;13.00;;;;;15.75;79.71;99751.69;5054348;28;45486;-67
2022/10/04 08:01:38;;;;;;;;;14.50;9.50;;;;;15.80;79.25;99760.28;5050726;28;45625;-67
2022/10/04 08:04:36;;;;;;;;;15.50;14.25;;;;;15.86;78.98;99754.66;5070767;27;45497;-67
2022/10/04 08:07:18;;;;;;;;;13.50;13.50;;;;;15.87;78.98;99761.69;5046353;28;45531;-67
2022/10/04 08:10:24;;;;;;;;;12.00;11.50;;;;;15.95;79.08;99759.47;5055400;28;45436;-67
2022/10/04 08:13:17;;;;;;;;;16.00;11.50;;;;;16.00;79.25;99762.78;5050016;28;45470;-67
2022/10/04 08:15:43;;;;;;;;;20.25;15.50;;;;;16.06;78.69;99761.59;5049917;28;45395;-67
2022/10/04 08:18:21;;;;;;;;;15.00;14.75;;;;;16.11;78.95;99764.00;5084129;27;47047;-67
2022/10/04 08:20:51;;;;;;;;;17.00;16.75;;;;;16.16;78.52;99762.84;5050995;28;45387;-67
2022/10/04 08:23:26;;;;;;;;;15.00;13.00;;;;;16.21;78.63;99760.81;5054203;28;45372;-67
2022/10/04 08:26:00;;;;;;;;;11.75;11.75;;;;;16.27;78.37;99759.59;5064960;27;45531;-67
2022/10/04 08:31:52;;;;;;;;;16.50;14.75;;;;;16.39;78.29;99772.25;5053909;28;45365;-67
2022/10/04 08:34:37;;;;;;;;;17.25;15.25;;;;;16.46;78.34;99770.13;5070306;27;45390;-67
2022/10/04 08:37:10;;;;;;;;;16.00;14.75;;;;;16.53;77.33;99766.19;5048433;28;45352;-67
2022/10/04 08:40:15;;;;;;;;;15.00;15.00;;;;;16.59;78.08;99769.38;5070375;27;47166;-67
2022/10/04 08:42:43;;;;;;;;;16.00;15.00;;;;;16.66;77.62;99770.78;5053886;28;45368;-67
2022/10/04 08:45:19;;;;;;;;;13.00;11.25;;;;;16.73;76.93;99766.00;5054580;28;45356;-66
2022/10/04 08:48:00;;;;;;;;;9.50;9.50;;;;;16.80;76.28;99769.16;5044620;28;45418;-67
2022/10/04 08:50:49;;;;;;;;;14.25;12.50;;;;;16.85;76.10;99761.81;5069875;27;47422;-67
2022/10/04 08:54:05;;;;;;;;;11.40;11.40;;;;;16.91;75.77;99764.13;5035395;28;45452;-67
2022/10/04 08:57:06;;;;;;;;;13.25;12.75;;;;;16.97;75.45;99763.78;5031699;28;45352;-67
2022/10/04 09:00:00;;;;;;;;;10.00;9.25;;;;;17.03;74.93;99764.28;5045356;28;45436;-69
2022/10/04 09:02:47;;;;;;;;;13.25;13.00;;;;;17.13;74.54;99766.44;5070004;28;48091;-67
2022/10/04 09:05:41;;;;;;;;;8.75;7.75;;;;;17.19;74.97;99763.44;5070396;28;45357;-67
2022/10/04 09:08:21;;;;;;;;;10.50;7.50;;;;;17.24;74.66;99764.03;5055003;28;45367;-67
2022/10/04 09:11:18;;;;;;;;;7.25;7.25;;;;;17.30;74.39;99766.34;5054921;28;45423;-67
2022/10/04 09:13:52;;;;;;;;;10.50;8.75;;;;;17.33;74.58;99760.81;5054070;28;45540;-68
2022/10/04 09:16:41;;;;;;;;;11.20;9.80;;;;;17.38;74.44;99764.09;5054551;28;45380;-67
2022/10/04 09:19:43;;;;;;;;;10.00;9.00;;;;;17.44;74.07;99761.06;5054487;28;45448;-67
2022/10/04 09:22:18;;;;;;;;;9.50;7.75;;;;;17.50;73.98;99757.19;5052853;28;45577;-67
2022/10/04 09:25:20;;;;;;;;;10.75;8.75;;;;;17.57;73.49;99753.22;5053622;28;46473;-67
2022/10/04 09:28:12;;;;;;;;;11.00;9.20;;;;;17.64;73.87;99763.47;5054175;28;45459;-67
2022/10/04 09:30:46;;;;;;;;;9.25;8.25;;;;;17.71;73.60;99748.81;5038682;28;45598;-66
2022/10/04 09:33:26;;;;;;;;;9.00;9.00;;;;;17.78;73.03;99749.31;5056777;28;45377;-67
2022/10/04 09:36:13;;;;;;;;;12.50;10.75;;;;;17.85;72.97;99749.81;5069847;28;45769;-67
2022/10/04 09:38:54;;;;;;;;;11.40;11.00;;;;;17.91;72.66;99750.31;5070024;28;45429;-67
2022/10/04 09:41:22;;;;;;;;;9.75;9.25;;;;;17.96;71.97;99740.19;5054698;28;45604;-67
2022/10/04 09:44:18;;;;;;;;;11.00;9.00;;;;;18.03;72.11;99746.03;5054015;28;45566;-67
2022/10/04 09:47:06;;;;;;;;;11.00;8.50;;;;;18.10;71.76;99739.34;5069479;28;47541;-67
2022/10/04 09:49:43;;;;;;;;;13.20;9.60;;;;;18.17;71.62;99743.38;5054158;28;45455;-67
2022/10/04 09:52:49;;;;;;;;;9.75;9.75;;;;;18.22;70.94;99741.28;5054184;28;45451;-67
2022/10/04 09:55:17;;;;;;;;;9.50;9.50;;;;;18.30;70.95;99743.47;5053452;28;45463;-67
2022/10/04 09:57:47;;;;;;;;;10.75;9.75;;;;;18.36;70.66;99745.78;5068968;28;47789;-66
2022/10/04 10:00:24;;;;;;;;;9.60;8.00;;;;;18.40;70.51;99742.84;5069054;27;45368;-67
2022/10/04 10:03:07;;;;;;;;;9.25;8.75;;;;;18.44;70.45;99738.13;5052420;28;45422;-67
2022/10/04 10:05:56;;;;;;;;;11.00;11.00;;;;;18.51;70.48;99741.28;5069458;28;45406;-67
2022/10/04 10:08:45;;;;;;;;;10.00;10.00;;;;;18.58;69.83;99742.63;5038379;28;46152;-67
2022/10/04 10:14:49;;;;;;;;;6.00;6.00;;;;;18.70;69.62;99744.56;5053702;28;45488;-67
2022/10/04 10:17:39;;;;;;;;;9.00;9.00;;;;;18.75;69.87;99740.66;5053399;28;45617;-66
2022/10/04 10:20:37;;;;;;;;;10.50;10.00;;;;;18.81;69.77;99744.72;5051988;28;47384;-66
2022/10/04 10:23:05;;;;;;;;;8.75;8.75;;;;;18.89;69.03;99741.56;5013514;28;45393;-67
2022/10/04 10:25:57;;;;;;;;;7.25;7.25;;;;;18.94;69.01;99745.63;5056015;28;45481;-67
2022/10/04 10:28:41;;;;;;;;;9.00;8.00;;;;;18.98;69.20;99747.16;5072501;28;45372;-67
2022/10/04 10:31:33;;;;;;;;;8.75;8.75;;;;;19.01;68.82;99732.75;5072047;28;47173;-67
2022/10/04 10:33:58;;;;;;;;;9.60;8.40;;;;;19.07;68.42;99737.72;5056423;28;45521;-67
2022/10/04 10:36:42;;;;;;;;;9.00;8.75;;;;;19.11;67.97;99736.53;5057278;28;45435;-67
2022/10/04 10:39:26;;;;;;;;;10.00;10.00;;;;;19.13;68.77;99735.47;5072299;28;45480;-66
2022/10/04 10:41:51;;;;;;;;;9.00;7.75;;;;;19.18;67.88;99733.38;5072742;27;46865;-67
2022/10/04 10:44:25;;;;;;;;;9.00;9.00;;;;;19.26;67.73;99738.22;5056429;28;45455;-66
2022/10/04 10:47:12;;;;;;;;;8.80;8.80;;;;;19.32;67.18;99724.44;5072406;28;45415;-66
2022/10/04 10:50:16;;;;;;;;;8.00;7.00;;;;;19.40;67.40;99723.94;5071692;27;45447;-67
2022/10/04 10:52:44;;;;;;;;;9.00;8.00;;;;;19.41;66.80;99726.50;5058917;28;47156;-66
2022/10/04 10:55:33;;;;;;;;;10.00;8.00;;;;;19.44;66.35;99733.44;5056574;28;45344;-66
2022/10/04 10:58:25;;;;;;;;;8.00;8.00;;;;;19.47;66.43;99722.53;5056840;28;45344;-66
2022/10/04 11:01:15;;;;;;;;;8.75;7.75;;;;;19.51;65.68;99716.06;5056756;28;45332;-66
2022/10/04 11:04:01;;;;;;;;;8.00;7.20;;;;;19.60;66.02;99720.81;5055461;28;45421;-66
2022/10/04 11:07:04;;;;;;;;;7.40;6.60;;;;;19.68;65.37;99726.50;5056279;28;45443;-65
2022/10/04 11:10:11;;;;;;;;;10.75;9.75;;;;;19.77;65.13;99733.06;5071804;28;45416;-66
2022/10/04 11:12:54;;;;;;;;;8.50;6.75;;;;;19.84;64.77;99732.50;5024158;28;45473;-66
2022/10/04 11:15:56;;;;;;;;;8.00;8.00;;;;;19.91;64.51;99732.09;5053626;28;45618;-66
2022/10/04 11:18:40;;;;;;;;;8.00;7.20;;;;;19.98;64.69;99728.03;5055860;28;45475;-67
2022/10/04 11:21:15;;;;;;;;;9.40;9.40;;;;;20.03;64.09;99725.91;5056481;28;45406;-65
2022/10/04 11:24:05;;;;;;;;;8.50;8.00;;;;;20.06;64.35;99723.88;5056395;28;45328;-66
2022/10/04 11:27:01;;;;;;;;;8.75;7.25;;;;;20.08;63.47;99726.44;5055683;28;45412;-67
2022/10/04 11:29:26;;;;;;;;;10.60;8.80;;;;;20.08;63.14;99721.94;5071384;28;45517;-67
2022/10/04 11:32:01;;;;;;;;;9.00;8.00;;;;;20.11;62.15;99720.84;5056408;28;45448;-67
2022/10/04 11:34:52;;;;;;;;;7.00;7.00;;;;;20.14;61.49;99721.50;5055859;28;45384;-67
2022/10/04 11:37:43;;;;;;;;;7.40;6.80;;;;;20.20;60.13;99723.75;5055714;28;45665;-65
2022/10/04 11:40:23;;;;;;;;;7.80;6.80;;;;;20.26;59.93;99718.94;5056019;28;45448;-66
2022/10/04 11:43:13;;;;;;;;;7.20;7.00;;;;;20.30;59.46;99720.41;5056121;28;45270;-67
2022/10/04 11:46:12;;;;;;;;;6.75;6.00;;;;;20.34;59.18;99711.22;5055486;28;45337;-66
2022/10/04 11:48:57;;;;;;;;;6.20;6.20;;;;;20.40;59.25;99717.03;5054615;28;46650;-65
2022/10/04 11:51:46;;;;;;;;;6.20;5.80;;;;;20.47;59.10;99707.59;5055976;28;45412;-68
2022/10/04 11:54:30;;;;;;;;;7.25;7.00;;;;;20.59;58.97;99715.72;5055729;28;45446;-65
2022/10/04 11:57:14;;;;;;;;;7.00;6.25;;;;;20.67;58.92;99722.22;5055602;28;45481;-66
2022/10/04 12:00:11;;;;;;;;;7.00;7.00;;;;;20.71;59.17;99712.16;5055981;28;46650;-65
2022/10/04 12:02:58;;;;;;;;;9.00;7.20;;;;;20.74;59.62;99715.47;5053470;28;45407;-65
2022/10/04 12:05:49;;;;;;;;;7.00;7.00;;;;;20.80;58.84;99706.97;5055843;28;45373;-66
2022/10/04 12:08:43;;;;;;;;;9.00;9.00;;;;;20.85;58.87;99702.13;5055260;28;45552;-66
2022/10/04 12:11:14;;;;;;;;;6.25;6.25;;;;;20.95;58.33;99696.94;5055509;28;46304;-66
2022/10/04 12:14:07;;;;;;;;;8.00;8.00;;;;;21.01;58.23;99696.50;5055125;28;45416;-66
2022/10/04 12:16:42;;;;;;;;;7.00;6.40;;;;;21.09;56.87;99695.97;5070650;27;45411;-66
2022/10/04 12:19:22;;;;;;;;;8.00;6.50;;;;;21.15;56.92;99685.59;5055028;28;45478;-65
2022/10/04 12:22:00;;;;;;;;;7.80;7.60;;;;;21.21;56.67;99685.19;5070637;28;48077;-65
2022/10/04 12:24:31;;;;;;;;;7.00;6.20;;;;;21.27;56.90;99677.66;5055039;28;45524;-65
2022/10/04 12:27:15;;;;;;;;;6.40;6.40;;;;;21.32;56.38;99670.09;5070436;28;45399;-66
2022/10/04 12:29:52;;;;;;;;;6.75;6.75;;;;;21.35;56.72;99667.19;5055320;28;45356;-66